Needles Airport Needles US
ICAO: KEED
IATA: EED
Category: Medium
Scheduled Services: No

Elevation: 983 ft
TransAlt. 18000 ft.

Airport Communications:
LOS ANGELES CNTR:134.65
ASOS:128.325
PRESCOTT RDO:115.2
CTAF/UNICOM:123

KEED Zoom In..

Runways:

(A) RW 02 length 4235 ft width 100 ft
---- / hdg 16

(B) RW 11 length 5005 ft width 100 ft
---- / hdg 106

(C) RW 20 length 4235 ft width 100 ft
---- / hdg 196

(D) RW 29 length 5005 ft width 100 ft
---- / hdg 286

Location; KEED
Day. 17 / Time. 06.56 Zulu
* Altimeter: 29.80
* Temperature: 39° c. 102.2°f.
* Wind from: 220° Speed 10 kn.
Dewpoint: 15° c.
Visibility: 10 Statute Miles.
Clouds: Clear (automated report).

KEED 170656Z AUTO 22010KT 10SM CLR 39/15 A2980 RMK AO2 SLP049 T03940150


Wind From 220°
Speed 10 kn.

 
 
jpsmedia.com for Web Design worldairports.se 2018   terms of use